KWHP/WHP METAR and TAF weather

Enter ICAO airport designator
Station Type Date Time Source
KWHP METAR 2021/07/30 02:55 UTC NOAA

KWHP 300255Z 12004KT 10SM SKC 27/13 A2991


Station Type Date Time Source
KWHP Decoded METAR 2021/07/30 02:55 UTC NOAA

Los Angeles, Whiteman Airport, CA, United States (KWHP) 34-15N 118-24W
Jul 29, 2021 - 10:55 PM EDT / 2021.07.30 0255 UTC
Wind: from the ESE (120 degrees) at 5 MPH (4 KT):0
Visibility: 10 mile(s):0
Sky conditions: clear
Temperature: 80 F (27 C)
Dew Point: 55 F (13 C)
Relative Humidity: 41%
Pressure (altimeter): 29.91 in. Hg (1012 hPa)
ob: KWHP 300255Z 12004KT 10SM SKC 27/13 A2991
cycle: 3

Station Type Date Time Source
KWHP TAF UTC NOAA

Error!

Example: see airport list